Koksijde, België

10:29 PM CET op 28 november 2014 (GMT +0100)
P.Heinderycxstraat | Change Station
CLOSE
Current Station
Persoonlijk weerstation
Location: Veurne, VLAAMS GEWEST
Geometrische hoogte: 6 ft
Nabije weerstations

Hoogte 6 ft 51.07 °N, 2.66 °E | Updated 8 seconds ago

Clear
Helder
48.0 °F
Voelt als 44 °F
N
9.2
Wind Variabel Wind van OZO
Gusts 9.2 mijl/u

Vandaag
Hoog -- | Laag -- °F
--% Kans op neerslag
Gisteren
Hoog -- | Laag -- °F
Precip. -- inches
8:26 AM 4:47 PM
Wassende halvemaan, 44% visible
Druk 29.77 inches
Zicht -9999.0 mijlen
Wolken
Gevoelstemperatuur 44 °F
Dauwpunt 30 °F
Vochtigheid 50%
Neerslag 0.00 inches
Dikte sneeuw Niet beschikbaar.
UV Niet beschikbaar.
Pollen Niet beschikbaar.
Luchtkwaliteit Niet beschikbaar.
Flu Activity Niet beschikbaar.
METAR EBOS 282120Z 10007KT CAVOK 08/05 Q1008 NOSIG

More Conditions Fewer Conditions

Druk 29.77 inches
Zicht -9999.0 mijlen
Wolken
Gevoelstemperatuur 44 °F
Dauwpunt 30 °F
Vochtigheid 50%
Neerslag 0.00 inches
Dikte sneeuw Niet beschikbaar.
UV Niet beschikbaar.
Pollen Niet beschikbaar.
Luchtkwaliteit Niet beschikbaar.
Flu Activity Niet beschikbaar.
METAR EBOS 282120Z 10007KT CAVOK 08/05 Q1008 NOSIG

More Conditions Fewer Conditions

10-Day Weather Forecast

Almanac

Astronomie

Nov. 28, 2014 Opkomst Ondergang
Werkelijke tijd
Burgerlijke schemering
Nautische schemering
Astronomische schemering
Maan
Golflengte van het zichtbare licht
Daglengte
Tomorrow will be .
, % of the Moon is Illuminated

Extremen vandaag

Country Highs Country Lows

Community

WunderPhotos

Upload Photos

1,774,306 foto’s ge-upload!

WunderBlogs® & News

Nearby

Luchtkwaliteit

  Luchtkwaliteit LK-index Verontreinigende stof
Not available.

Dikte sneeuw

Station Depth Geometrische hoogte

Aardbevingen

Stad Distance Mag. Time & Date
Minimum magnitude displayed is 2.5.

Watertemperatuur langs de kust

Plaats Temperatuur

Nabije weerstations